createdAt,value
2022-09-28T00:01:13.472Z,94938.50
2022-09-28T00:03:41.646Z,94845.75
2022-09-28T00:06:12.245Z,94921.19
2022-09-28T00:08:39.547Z,94909.53
2022-09-28T00:11:08.062Z,94910.25
2022-09-28T00:13:35.285Z,94896.75
2022-09-28T00:16:08.398Z,94907.00
2022-09-28T00:18:36.109Z,94888.00
2022-09-28T00:21:06.956Z,94892.03
2022-09-28T00:23:34.991Z,94887.03
2022-09-28T00:26:03.789Z,94865.38
2022-09-28T00:28:31.436Z,94867.72
2022-09-28T00:30:59.215Z,94853.84
2022-09-28T00:33:25.973Z,94839.88
2022-09-28T00:35:58.173Z,94853.16
2022-09-28T00:38:31.120Z,94848.94
2022-09-28T00:40:59.639Z,94845.34
2022-09-28T00:43:28.042Z,94837.28
2022-09-28T00:46:18.902Z,94792.25
2022-09-28T00:48:59.270Z,94831.03
2022-09-28T00:51:26.674Z,94800.59
2022-09-28T00:53:56.104Z,94805.66
2022-09-28T00:56:26.233Z,94791.41
2022-09-28T00:58:54.712Z,94790.31
2022-09-28T01:01:22.806Z,94800.72
2022-09-28T01:03:53.665Z,94802.13
2022-09-28T01:06:23.350Z,94800.53
2022-09-28T01:08:52.120Z,94788.34
2022-09-28T01:11:19.605Z,94796.47
2022-09-28T01:13:48.805Z,94788.06
2022-09-28T01:20:09.753Z,94778.00
2022-09-28T01:23:09.390Z,94774.09
2022-09-28T01:25:45.911Z,94764.88
2022-09-28T01:28:18.194Z,94764.72
2022-09-28T01:30:52.458Z,94748.75
2022-09-28T01:33:26.414Z,94759.78
2022-09-28T01:36:00.147Z,94692.63
2022-09-28T01:38:49.382Z,94744.75
2022-09-28T01:41:17.958Z,94731.06
2022-09-28T01:43:53.766Z,94730.00
2022-09-28T01:46:23.548Z,94727.13
2022-09-28T01:48:55.358Z,94721.69
2022-09-28T01:51:43.279Z,94716.75
2022-09-28T01:54:15.041Z,94695.47
2022-09-28T01:56:49.296Z,94687.78
2022-09-28T02:00:06.369Z,94698.34
2022-09-28T02:02:55.297Z,94695.47
2022-09-28T02:05:36.301Z,94690.97
2022-09-28T02:08:12.586Z,94680.50
2022-09-28T02:11:03.920Z,94673.00
2022-09-28T02:13:35.592Z,94655.81
2022-09-28T02:16:22.972Z,94660.81
2022-09-28T02:18:49.963Z,94629.44
2022-09-28T02:21:39.574Z,94654.59
2022-09-28T02:24:21.549Z,94649.94
2022-09-28T02:26:52.073Z,94632.31
2022-09-28T02:29:19.424Z,94605.66
2022-09-28T02:31:46.152Z,94604.06
2022-09-28T02:34:12.860Z,94626.94
2022-09-28T02:36:39.950Z,94632.91
2022-09-28T02:39:14.146Z,94536.94
2022-09-28T02:42:06.933Z,94621.47
2022-09-28T02:44:45.269Z,94617.09
2022-09-28T02:47:22.658Z,94598.69
2022-09-28T02:50:20.400Z,94616.03
2022-09-28T02:52:58.280Z,94611.59
2022-09-28T02:55:47.062Z,94596.06
2022-09-28T02:58:14.434Z,94604.91
2022-09-28T03:01:06.938Z,94589.56
2022-09-28T03:03:48.913Z,94607.50
2022-09-28T03:06:37.990Z,94583.13
2022-09-28T03:09:12.367Z,94569.53
2022-09-28T03:11:42.365Z,94587.91
2022-09-28T03:14:10.018Z,94580.00
2022-09-28T03:16:46.196Z,94550.34
2022-09-28T03:19:13.676Z,94571.47
2022-09-28T03:21:41.320Z,94566.63
2022-09-28T03:24:11.146Z,94580.59
2022-09-28T03:26:41.441Z,94572.28
2022-09-28T03:29:09.905Z,94586.28
2022-09-28T03:31:38.595Z,94553.16
2022-09-28T03:34:05.627Z,94549.31
2022-09-28T03:36:32.276Z,94561.38
2022-09-28T03:38:59.674Z,94470.34
2022-09-28T03:41:27.907Z,94465.34
2022-09-28T03:43:54.906Z,94476.84
2022-09-28T03:46:24.428Z,94550.91
2022-09-28T03:48:58.216Z,94544.66
2022-09-28T03:51:25.915Z,94513.63
2022-09-28T03:53:53.558Z,94533.81
2022-09-28T03:56:20.901Z,94505.84
2022-09-28T03:58:47.678Z,94528.38
2022-09-28T04:01:40.748Z,94523.94
2022-09-28T04:04:12.882Z,94519.50
2022-09-28T04:06:40.303Z,94512.59
2022-09-28T04:09:08.373Z,94428.75
2022-09-28T04:11:59.439Z,94508.09
2022-09-28T04:14:22.627Z,94473.66
2022-09-28T04:16:49.674Z,94489.91
2022-09-28T04:19:17.526Z,94468.25
2022-09-28T04:21:51.870Z,94480.16
2022-09-28T04:24:20.329Z,94481.78
2022-09-28T04:26:50.833Z,94486.59
2022-09-28T04:29:19.264Z,94477.22
2022-09-28T04:31:51.482Z,94492.56
2022-09-28T04:34:22.745Z,94470.28
2022-09-28T04:36:50.094Z,94481.16
2022-09-28T04:39:17.979Z,94487.09
2022-09-28T04:41:49.252Z,94474.41
2022-09-28T04:44:17.139Z,94478.47
2022-09-28T04:46:45.632Z,94458.94
2022-09-28T04:49:37.114Z,94461.66
2022-09-28T04:52:08.765Z,94476.72
2022-09-28T04:54:36.037Z,94478.34
2022-09-28T04:57:03.802Z,94387.75
2022-09-28T04:59:30.584Z,94478.47
2022-09-28T05:01:58.453Z,94474.06
2022-09-28T05:05:05.127Z,94481.47
2022-09-28T05:07:58.629Z,94472.84
2022-09-28T05:10:25.458Z,94476.41
2022-09-28T05:12:54.164Z,94477.94
2022-09-28T05:15:22.029Z,94473.63
2022-09-28T05:17:49.308Z,94393.44
2022-09-28T05:20:40.602Z,94475.16
2022-09-28T05:23:12.313Z,94466.72
2022-09-28T05:25:42.092Z,94480.84
2022-09-28T05:28:44.640Z,94473.72
2022-09-28T05:31:30.505Z,94428.09
2022-09-28T05:34:08.291Z,94432.31
2022-09-28T05:36:35.698Z,94450.47
2022-09-28T05:39:03.911Z,94451.25
2022-09-28T05:41:31.314Z,94414.34
2022-09-28T05:44:00.193Z,94441.66
2022-09-28T05:46:27.777Z,94446.75
2022-09-28T05:48:56.124Z,94435.22
2022-09-28T05:51:25.346Z,94449.53
2022-09-28T05:53:58.814Z,94444.09
2022-09-28T05:56:30.766Z,94431.69
2022-09-28T05:58:58.679Z,94413.09
2022-09-28T06:01:29.889Z,94451.16
2022-09-28T06:03:59.242Z,94436.63
2022-09-28T06:06:26.111Z,94441.66
2022-09-28T06:08:52.987Z,94411.91
2022-09-28T06:11:35.528Z,94444.94
2022-09-28T06:14:09.925Z,94372.38
2022-09-28T06:16:41.632Z,94427.31
2022-09-28T06:19:12.101Z,94466.44
2022-09-28T06:21:59.290Z,94463.94
2022-09-28T06:24:26.344Z,94444.56
2022-09-28T06:26:53.045Z,94385.34
2022-09-28T06:30:11.581Z,94452.66
2022-09-28T06:32:40.124Z,94461.19
2022-09-28T06:35:08.760Z,94468.16
2022-09-28T06:37:36.676Z,94457.56
2022-09-28T06:40:03.743Z,94429.84
2022-09-28T06:42:31.020Z,94400.03
2022-09-28T06:45:21.841Z,94442.34
2022-09-28T06:48:11.600Z,94440.41
2022-09-28T06:50:41.096Z,94454.63
2022-09-28T06:53:14.468Z,94451.78
2022-09-28T06:55:49.950Z,94431.81
2022-09-28T06:58:19.688Z,94470.50
2022-09-28T07:09:23.818Z,94455.50
2022-09-28T07:12:23.172Z,94445.06
2022-09-28T07:15:13.069Z,94463.44
2022-09-28T07:17:55.362Z,94432.03
2022-09-28T07:20:25.370Z,94463.31
2022-09-28T07:23:08.714Z,94462.97
2022-09-28T07:26:05.820Z,94456.22
2022-09-28T07:28:55.752Z,94461.59
2022-09-28T07:31:38.195Z,94488.56
2022-09-28T07:34:43.998Z,94477.38
2022-09-28T07:37:15.770Z,94470.78
2022-09-28T07:40:01.739Z,94489.34
2022-09-28T07:42:31.227Z,94484.78
2022-09-28T07:44:58.885Z,94494.91
2022-09-28T07:47:30.861Z,94490.50
2022-09-28T07:50:13.785Z,94489.00
2022-09-28T07:52:53.141Z,94488.00
2022-09-28T07:56:07.347Z,94494.19
2022-09-28T07:58:41.524Z,94477.09
2022-09-28T08:01:37.727Z,94501.38
2022-09-28T08:04:06.451Z,94503.88
2022-09-28T08:06:34.815Z,94489.81
2022-09-28T08:09:03.491Z,94502.44
2022-09-28T08:11:49.985Z,94513.00
2022-09-28T08:14:34.289Z,94518.41
2022-09-28T08:17:11.693Z,94540.00
2022-09-28T08:20:05.686Z,94550.34
2022-09-28T08:22:32.373Z,94545.50
2022-09-28T08:25:00.204Z,94555.41
2022-09-28T08:27:26.995Z,94557.38
2022-09-28T08:29:53.919Z,94537.13
2022-09-28T08:32:38.806Z,94537.28
2022-09-28T08:35:25.676Z,94548.03
2022-09-28T08:38:33.474Z,94583.84
2022-09-28T08:41:49.114Z,94595.63
2022-09-28T08:48:08.259Z,94590.38
2022-09-28T08:50:51.087Z,94618.63
2022-09-28T08:53:47.793Z,94604.78
2022-09-28T08:56:29.807Z,94629.19
2022-09-28T08:59:08.713Z,94586.59
2022-09-28T09:01:39.409Z,94622.56
2022-09-28T09:04:12.703Z,94624.84
2022-09-28T09:07:34.573Z,94630.50
2022-09-28T09:10:13.624Z,94615.72
2022-09-28T09:12:58.850Z,94623.53
2022-09-28T09:15:56.401Z,94614.59
2022-09-28T09:19:06.221Z,94615.56
2022-09-28T09:22:01.706Z,94598.31
2022-09-28T09:24:40.789Z,94601.06
2022-09-28T09:27:32.627Z,94604.88
2022-09-28T09:30:09.384Z,94601.88
2022-09-28T09:33:07.842Z,94600.88
2022-09-28T09:36:19.445Z,94607.13
2022-09-28T09:39:17.950Z,94595.75
2022-09-28T09:42:23.620Z,94604.53
2022-09-28T09:45:23.749Z,94600.91
2022-09-28T09:48:16.968Z,94614.63
2022-09-28T09:50:49.687Z,94573.91
2022-09-28T09:53:27.851Z,94620.25
2022-09-28T09:55:58.421Z,94625.94
2022-09-28T09:58:36.734Z,94596.34
2022-09-28T10:01:38.904Z,94637.44
2022-09-28T10:04:21.059Z,94635.25
2022-09-28T10:06:49.796Z,94641.94
2022-09-28T10:09:26.210Z,94632.06
2022-09-28T10:11:55.606Z,94633.47
2022-09-28T10:14:24.471Z,94613.47
2022-09-28T10:17:04.207Z,94648.75
2022-09-28T10:20:03.803Z,94642.66
2022-09-28T10:22:36.501Z,94641.50
2022-09-28T10:25:10.786Z,94656.81
2022-09-28T10:27:42.122Z,94639.22
2022-09-28T10:30:18.194Z,94637.94
2022-09-28T10:32:47.837Z,94661.28
2022-09-28T10:35:27.125Z,94657.41
2022-09-28T10:38:06.805Z,94649.81
2022-09-28T10:41:37.849Z,94659.19
2022-09-28T10:44:15.632Z,94656.94
2022-09-28T10:47:23.463Z,94662.44
2022-09-28T10:49:51.247Z,94660.50
2022-09-28T10:52:37.584Z,94675.91
2022-09-28T10:55:26.109Z,94673.03
2022-09-28T10:57:53.181Z,94670.97
2022-09-28T11:00:58.089Z,94656.03
2022-09-28T11:03:28.112Z,94685.97
2022-09-28T11:06:03.897Z,94683.88
2022-09-28T11:08:44.615Z,94671.72
2022-09-28T11:11:21.162Z,94680.94
2022-09-28T11:13:56.551Z,94652.13
2022-09-28T11:16:34.604Z,94673.28
2022-09-28T11:19:28.799Z,94683.38
2022-09-28T11:21:55.590Z,94682.88
2022-09-28T11:24:31.399Z,94647.25
2022-09-28T11:27:02.234Z,94681.34
2022-09-28T11:29:35.919Z,94684.59
2022-09-28T11:32:29.790Z,94671.97
2022-09-28T11:35:22.053Z,94686.31
2022-09-28T11:38:13.193Z,94687.75
2022-09-28T11:41:13.997Z,94686.31
2022-09-28T11:44:21.862Z,94679.56
2022-09-28T11:47:16.911Z,94687.25
2022-09-28T11:49:49.756Z,94684.53
2022-09-28T11:52:40.286Z,94690.53
2022-09-28T11:55:36.713Z,94690.53
2022-09-28T11:58:15.787Z,94683.25
2022-09-28T12:00:47.558Z,94686.97
2022-09-28T12:03:25.619Z,94671.97
2022-09-28T12:06:00.446Z,94697.19
2022-09-28T12:08:33.483Z,94669.03
2022-09-28T12:11:23.425Z,94698.06
2022-09-28T12:14:18.365Z,94681.28
2022-09-28T12:17:07.696Z,94698.69
2022-09-28T12:20:02.250Z,94699.25
2022-09-28T12:22:39.652Z,94696.88
2022-09-28T12:25:11.675Z,94693.78
2022-09-28T12:28:07.134Z,94695.31
2022-09-28T12:30:37.455Z,94676.91
2022-09-28T12:33:12.431Z,94668.97
2022-09-28T12:36:06.005Z,94678.50
2022-09-28T12:39:08.750Z,94712.28
2022-09-28T12:41:50.825Z,94714.75
2022-09-28T12:44:42.113Z,94722.34
2022-09-28T12:47:27.580Z,94722.34
2022-09-28T12:54:18.320Z,94703.00
2022-09-28T12:57:12.269Z,94723.50
2022-09-28T12:59:42.701Z,94706.78
2022-09-28T13:02:22.954Z,94725.66
2022-09-28T13:04:50.692Z,94721.75
2022-09-28T13:07:26.405Z,94731.47
2022-09-28T13:10:12.138Z,94728.53
2022-09-28T13:13:19.362Z,94726.63
2022-09-28T13:15:59.148Z,94714.38
2022-09-28T13:18:42.787Z,94710.53
2022-09-28T13:21:15.398Z,94696.06
2022-09-28T13:23:44.071Z,94709.47
2022-09-28T13:26:28.055Z,94711.84
2022-09-28T13:29:00.442Z,94715.03
2022-09-28T13:31:32.452Z,94685.16
2022-09-28T13:34:02.970Z,94710.72
2022-09-28T13:36:30.077Z,94712.72
2022-09-28T13:38:59.423Z,94718.34
2022-09-28T13:41:37.614Z,94713.06
2022-09-28T13:44:13.335Z,94716.00
2022-09-28T13:47:06.174Z,94710.19
2022-09-28T13:49:45.710Z,94710.03
2022-09-28T13:52:25.716Z,94697.88
2022-09-28T13:55:11.606Z,94702.78
2022-09-28T13:57:48.936Z,94699.53
2022-09-28T14:00:27.832Z,94700.66
2022-09-28T14:03:22.192Z,94685.09
2022-09-28T14:06:21.777Z,94700.56
2022-09-28T14:09:13.439Z,94708.25
2022-09-28T14:11:53.300Z,94707.59
2022-09-28T14:14:29.918Z,94712.47
2022-09-28T14:17:23.486Z,94698.19
2022-09-28T14:19:53.428Z,94704.66
2022-09-28T14:22:27.364Z,94715.25
2022-09-28T14:24:54.746Z,94711.56
2022-09-28T14:27:41.738Z,94716.97
2022-09-28T14:30:11.448Z,94719.78
2022-09-28T14:32:49.192Z,94707.13
2022-09-28T14:35:40.086Z,94729.97
2022-09-28T14:39:16.022Z,94723.94
2022-09-28T14:41:44.010Z,94714.56
2022-09-28T14:44:12.359Z,94725.50
2022-09-28T14:46:44.706Z,94721.06
2022-09-28T14:49:19.456Z,94719.38
2022-09-28T14:51:58.379Z,94722.81
2022-09-28T14:54:27.027Z,94711.97
2022-09-28T14:56:53.593Z,94722.03
2022-09-28T14:59:30.354Z,94718.41
2022-09-28T15:02:03.491Z,94717.88
2022-09-28T15:04:31.236Z,94700.81
2022-09-28T15:06:58.084Z,94696.59
2022-09-28T15:09:36.676Z,94704.53
2022-09-28T15:12:15.098Z,94722.16
2022-09-28T15:15:02.257Z,94721.59
2022-09-28T15:17:34.654Z,94723.78
2022-09-28T15:20:29.961Z,94722.63
2022-09-28T15:22:58.889Z,94691.53
2022-09-28T15:25:28.649Z,94714.81
2022-09-28T15:28:17.261Z,94727.28
2022-09-28T15:30:43.922Z,94720.63
2022-09-28T15:33:43.298Z,94716.50
2022-09-28T15:36:16.692Z,94720.94
2022-09-28T15:38:43.452Z,94729.44
2022-09-28T15:41:11.121Z,94731.25
2022-09-28T15:43:38.234Z,94720.38
2022-09-28T15:46:19.092Z,94742.69
2022-09-28T15:48:53.209Z,94757.16
2022-09-28T15:51:22.296Z,94766.00
2022-09-28T15:54:00.046Z,94760.28
2022-09-28T15:56:27.545Z,94717.13
2022-09-28T15:59:15.418Z,94775.09
2022-09-28T16:01:44.624Z,94758.69
2022-09-28T16:05:00.932Z,94745.75
2022-09-28T16:07:33.505Z,94774.59
2022-09-28T16:10:04.872Z,94776.31
2022-09-28T16:12:37.246Z,94770.13
2022-09-28T16:15:34.301Z,94757.47
2022-09-28T16:18:18.044Z,94768.03
2022-09-28T16:20:49.531Z,94761.41
2022-09-28T16:23:20.952Z,94766.41
2022-09-28T16:26:11.219Z,94768.56
2022-09-28T16:28:40.789Z,94769.69
2022-09-28T16:31:13.368Z,94767.03
2022-09-28T16:33:41.151Z,94765.16
2022-09-28T16:36:15.398Z,94731.06
2022-09-28T16:38:45.432Z,94739.31
2022-09-28T16:41:13.393Z,94751.94
2022-09-28T16:43:41.441Z,94739.28
2022-09-28T16:46:12.827Z,94742.28
2022-09-28T16:48:48.464Z,94761.63
2022-09-28T16:51:20.029Z,94757.69
2022-09-28T16:54:06.341Z,94758.25
2022-09-28T16:56:33.507Z,94763.09
2022-09-28T16:59:01.128Z,94753.59
2022-09-28T17:01:32.286Z,94755.22
2022-09-28T17:04:01.663Z,94745.84
2022-09-28T17:06:28.301Z,94771.81
2022-09-28T17:08:56.665Z,94759.66
2022-09-28T17:11:24.963Z,94766.28
2022-09-28T17:13:52.255Z,94752.81
2022-09-28T17:16:32.638Z,94775.75
2022-09-28T17:19:05.503Z,94737.41
2022-09-28T17:21:32.176Z,94771.41
2022-09-28T17:23:59.795Z,94754.16
2022-09-28T17:26:30.660Z,94777.19
2022-09-28T17:29:01.652Z,94669.31
2022-09-28T17:31:29.484Z,94765.81
2022-09-28T17:33:56.149Z,94769.84
2022-09-28T17:36:22.922Z,94774.25
2022-09-28T17:38:51.722Z,94768.88
2022-09-28T17:41:21.061Z,94783.38
2022-09-28T17:43:49.283Z,94788.63
2022-09-28T17:46:27.712Z,94754.84
2022-09-28T17:48:59.420Z,94773.38
2022-09-28T17:51:31.176Z,94782.06
2022-09-28T17:53:58.633Z,94786.53
2022-09-28T17:56:31.685Z,94787.38
2022-09-28T17:59:01.602Z,94803.16
2022-09-28T18:01:34.902Z,94803.22
2022-09-28T18:04:05.022Z,94804.88
2022-09-28T18:07:30.951Z,94803.50
2022-09-28T18:09:58.268Z,94789.81
2022-09-28T18:12:25.035Z,94787.22
2022-09-28T18:14:53.362Z,94805.84
2022-09-28T18:17:19.967Z,94800.63
2022-09-28T18:19:46.603Z,94787.63
2022-09-28T18:22:13.250Z,94819.38
2022-09-28T18:24:39.974Z,94810.44
2022-09-28T18:27:06.990Z,94671.53
2022-09-28T18:29:34.968Z,94787.88
2022-09-28T18:32:02.455Z,94824.19
2022-09-28T18:34:29.111Z,94748.91
2022-09-28T18:36:55.823Z,94722.28
2022-09-28T18:39:23.803Z,94827.81
2022-09-28T18:41:51.543Z,94778.72
2022-09-28T18:44:18.954Z,94831.19
2022-09-28T18:46:45.604Z,94831.78
2022-09-28T18:49:12.318Z,94841.41
2022-09-28T18:51:43.515Z,94825.28
2022-09-28T18:54:10.144Z,94836.69
2022-09-28T18:56:38.001Z,94850.38
2022-09-28T18:59:11.712Z,94769.41
2022-09-28T19:01:41.481Z,94859.31
2022-09-28T19:04:12.141Z,94865.66
2022-09-28T19:06:41.235Z,94847.59
2022-09-28T19:09:08.833Z,94834.88
2022-09-28T19:11:36.285Z,94868.66
2022-09-28T19:14:15.004Z,94843.91
2022-09-28T19:16:43.958Z,94868.66
2022-09-28T19:19:13.052Z,94870.25
2022-09-28T19:21:40.341Z,94855.97
2022-09-28T19:24:07.009Z,94804.53
2022-09-28T19:26:33.954Z,94868.97
2022-09-28T19:29:02.403Z,94874.97
2022-09-28T19:31:29.846Z,94850.41
2022-09-28T19:33:57.514Z,94882.78
2022-09-28T19:36:28.526Z,94883.56
2022-09-28T19:38:57.489Z,94881.16
2022-09-28T19:41:43.498Z,94888.94
2022-09-28T19:44:26.949Z,94895.75
2022-09-28T19:47:09.862Z,94908.75
2022-09-28T19:49:53.291Z,94898.06
2022-09-28T19:52:19.969Z,94891.19
2022-09-28T19:54:57.613Z,94904.97
2022-09-28T19:57:28.834Z,94914.44
2022-09-28T20:00:01.682Z,94838.25
2022-09-28T20:02:34.355Z,94901.94
2022-09-28T20:05:02.937Z,94904.50
2022-09-28T20:07:32.985Z,94919.78
2022-09-28T20:09:59.880Z,94916.16
2022-09-28T20:12:27.592Z,94906.94
2022-09-28T20:14:54.421Z,94921.22
2022-09-28T20:17:21.729Z,94779.69
2022-09-28T20:19:51.074Z,94919.66
2022-09-28T20:22:18.556Z,94937.47
2022-09-28T20:24:45.309Z,94928.28
2022-09-28T20:27:12.657Z,94856.25
2022-09-28T20:29:39.281Z,94836.91
2022-09-28T20:32:07.517Z,94907.34
2022-09-28T20:34:34.278Z,94814.88
2022-09-28T20:37:01.826Z,94921.75
2022-09-28T20:39:30.292Z,94916.13
2022-09-28T20:41:57.351Z,94842.56
2022-09-28T20:44:24.118Z,94918.94
2022-09-28T20:46:51.675Z,94934.16
2022-09-28T20:49:19.473Z,94924.88
2022-09-28T20:51:46.242Z,94926.06
2022-09-28T20:54:12.912Z,94911.47
2022-09-28T20:56:40.151Z,94847.47
2022-09-28T20:59:08.484Z,94849.84
2022-09-28T21:02:27.349Z,94947.28
2022-09-28T21:04:55.079Z,94904.41
2022-09-28T21:07:21.647Z,94933.28
2022-09-28T21:09:51.131Z,94903.41
2022-09-28T21:12:19.142Z,94965.34
2022-09-28T21:14:45.827Z,94948.38
2022-09-28T21:17:12.707Z,94960.22
2022-09-28T21:19:39.370Z,94928.09
2022-09-28T21:22:07.253Z,94888.75
2022-09-28T21:25:31.799Z,94951.44
2022-09-28T21:27:59.305Z,94934.28
2022-09-28T21:30:26.728Z,94906.25
2022-09-28T21:32:53.482Z,94937.00
2022-09-28T21:35:20.052Z,94919.25
2022-09-28T21:37:46.646Z,94940.50
2022-09-28T21:40:13.347Z,94942.47
2022-09-28T21:42:40.742Z,94911.94
2022-09-28T21:45:08.807Z,94938.41
2022-09-28T21:48:03.651Z,94950.25
2022-09-28T21:50:30.930Z,94932.25
2022-09-28T21:52:57.488Z,94936.44
2022-09-28T21:55:24.383Z,94921.34
2022-09-28T21:57:51.674Z,94948.53
2022-09-28T22:00:23.127Z,94850.75
2022-09-28T22:02:52.748Z,94933.84
2022-09-28T22:05:20.357Z,94940.97
2022-09-28T22:07:48.610Z,94935.69
2022-09-28T22:10:19.279Z,94951.47
2022-09-28T22:12:46.101Z,94846.97
2022-09-28T22:15:12.880Z,94871.84
2022-09-28T22:17:40.224Z,94869.72
2022-09-28T22:20:07.284Z,94896.97
2022-09-28T22:22:34.398Z,94939.53
2022-09-28T22:25:01.850Z,94941.19
2022-09-28T22:27:31.590Z,94956.38
2022-09-28T22:29:59.118Z,94955.53
2022-09-28T22:33:29.419Z,94960.94
2022-09-28T22:35:56.277Z,94936.00
2022-09-28T22:38:24.275Z,94918.13
2022-09-28T22:40:54.164Z,94934.34
2022-09-28T22:43:23.307Z,94954.81
2022-09-28T22:46:00.071Z,94951.44
2022-09-28T22:48:26.927Z,94958.13
2022-09-28T22:50:53.585Z,94959.31
2022-09-28T22:53:20.323Z,94949.16
2022-09-28T22:55:48.735Z,94957.47
2022-09-28T22:58:15.470Z,94958.31
2022-09-28T23:00:43.246Z,94860.72
2022-09-28T23:03:21.547Z,94967.50
2022-09-28T23:05:54.722Z,94835.03
2022-09-28T23:08:22.531Z,94974.59
2022-09-28T23:10:50.356Z,94948.41
2022-09-28T23:13:18.464Z,94887.84
2022-09-28T23:16:25.624Z,94966.63
2022-09-28T23:18:54.579Z,94952.84
2022-09-28T23:21:23.721Z,94959.50
2022-09-28T23:23:56.046Z,94954.47
2022-09-28T23:26:25.400Z,94938.22
2022-09-28T23:28:52.665Z,94941.78
2022-09-28T23:31:24.689Z,94951.91
2022-09-28T23:33:51.644Z,94937.28
2022-09-28T23:36:18.589Z,94939.78
2022-09-28T23:38:45.441Z,94950.44
2022-09-28T23:41:12.135Z,94958.59
2022-09-28T23:43:39.060Z,94921.13
2022-09-28T23:46:06.096Z,94931.47
2022-09-28T23:48:34.195Z,94953.53
2022-09-28T23:51:01.658Z,94954.59
2022-09-28T23:53:29.668Z,94879.72
2022-09-28T23:55:56.321Z,94952.16
2022-09-28T23:58:24.262Z,94954.56
